createdAt,value
2019-04-11T00:00:57.652Z,11.40
2019-04-11T00:03:27.219Z,10.73
2019-04-11T00:05:56.622Z,11.47
2019-04-11T00:08:26.041Z,10.37
2019-04-11T00:10:55.553Z,10.83
2019-04-11T00:13:27.578Z,10.53
2019-04-11T00:15:57.173Z,10.87
2019-04-11T00:18:27.091Z,10.13
2019-04-11T00:20:56.608Z,10.37
2019-04-11T00:23:26.089Z,10.87
2019-04-11T00:25:55.923Z,10.67
2019-04-11T00:28:25.791Z,9.80
2019-04-11T00:30:55.305Z,9.40
2019-04-11T00:33:24.900Z,10.80
2019-04-11T00:35:55.595Z,10.53
2019-04-11T00:38:25.661Z,9.77
2019-04-11T00:40:55.590Z,9.67
2019-04-11T00:43:31.831Z,9.63
2019-04-11T00:45:56.112Z,10.00
2019-04-11T00:48:25.902Z,9.47
2019-04-11T00:50:55.965Z,10.73
2019-04-11T00:53:25.707Z,10.50
2019-04-11T00:55:55.721Z,10.13
2019-04-11T00:58:25.639Z,9.70
2019-04-11T01:00:55.553Z,10.50
2019-04-11T01:03:24.956Z,9.67
2019-04-11T01:05:55.546Z,9.57
2019-04-11T01:08:25.543Z,9.93
2019-04-11T01:10:55.228Z,9.20
2019-04-11T01:13:25.839Z,10.03
2019-04-11T01:16:06.991Z,9.33
2019-04-11T01:18:36.371Z,9.97
2019-04-11T01:21:06.198Z,9.33
2019-04-11T01:23:35.481Z,11.10
2019-04-11T01:26:05.307Z,10.13
2019-04-11T01:28:34.991Z,9.03
2019-04-11T01:31:09.552Z,9.00
2019-04-11T01:33:40.087Z,9.27
2019-04-11T01:36:09.513Z,9.47
2019-04-11T01:38:44.310Z,9.33
2019-04-11T01:41:14.106Z,9.53
2019-04-11T01:43:52.708Z,9.73
2019-04-11T01:46:14.677Z,8.77
2019-04-11T01:49:06.216Z,9.13
2019-04-11T01:51:35.914Z,8.83
2019-04-11T01:54:05.749Z,9.33
2019-04-11T01:56:35.204Z,9.20
2019-04-11T01:59:04.903Z,8.17
2019-04-11T02:01:51.161Z,8.83
2019-04-11T02:04:24.241Z,8.87
2019-04-11T02:06:54.127Z,9.50
2019-04-11T02:09:24.180Z,8.97
2019-04-11T02:11:54.024Z,7.93
2019-04-11T02:14:24.145Z,7.90
2019-04-11T02:16:53.719Z,9.47
2019-04-11T02:19:23.910Z,9.40
2019-04-11T02:21:54.896Z,9.80
2019-04-11T02:24:39.682Z,8.97
2019-04-11T02:27:28.016Z,9.03
2019-04-11T02:29:58.589Z,8.47
2019-04-11T02:32:29.295Z,9.30
2019-04-11T02:35:01.420Z,9.67
2019-04-11T02:37:31.660Z,8.50
2019-04-11T02:40:03.066Z,9.37
2019-04-11T02:42:32.974Z,9.20
2019-04-11T02:45:18.118Z,8.50
2019-04-11T02:47:37.272Z,7.60
2019-04-11T02:50:07.992Z,6.73
2019-04-11T02:52:37.786Z,5.93
2019-04-11T02:55:08.487Z,6.77
2019-04-11T02:57:40.568Z,5.60
2019-04-11T03:00:11.141Z,7.47
2019-04-11T03:02:42.385Z,7.70
2019-04-11T03:05:32.763Z,9.37
2019-04-11T03:08:06.797Z,9.90
2019-04-11T03:10:34.032Z,9.27
2019-04-11T03:13:05.027Z,7.23
2019-04-11T03:15:48.889Z,9.47
2019-04-11T03:18:09.524Z,8.60
2019-04-11T03:20:47.316Z,7.17
2019-04-11T03:23:12.182Z,6.40
2019-04-11T03:25:40.614Z,6.07
2019-04-11T03:28:14.913Z,7.83
2019-04-11T03:30:59.229Z,8.17
2019-04-11T03:38:38.446Z,9.63
2019-04-11T03:41:05.981Z,9.10
2019-04-11T03:43:30.174Z,9.30
2019-04-11T03:46:10.961Z,10.67
2019-04-11T03:48:33.318Z,10.73
2019-04-11T03:50:54.200Z,9.53
2019-04-11T03:53:25.337Z,9.77
2019-04-11T03:55:53.886Z,6.97
2019-04-11T03:58:24.252Z,9.00
2019-04-11T04:00:57.437Z,9.60
2019-04-11T04:03:26.855Z,8.47
2019-04-11T04:05:57.351Z,8.73
2019-04-11T04:08:29.760Z,9.93
2019-04-11T04:11:09.266Z,9.50
2019-04-11T04:13:41.033Z,9.47
2019-04-11T04:16:35.925Z,6.63
2019-04-11T04:19:15.257Z,7.87
2019-04-11T04:21:57.631Z,9.83
2019-04-11T04:24:38.815Z,8.10
2019-04-11T04:27:07.641Z,6.57
2019-04-11T04:29:37.686Z,6.37
2019-04-11T04:32:08.259Z,6.93
2019-04-11T04:34:37.784Z,6.20
2019-04-11T04:37:07.946Z,7.13
2019-04-11T04:39:39.776Z,6.37
2019-04-11T04:42:21.105Z,7.37
2019-04-11T04:44:42.358Z,8.50
2019-04-11T04:47:21.016Z,8.73
2019-04-11T04:49:43.689Z,10.23
2019-04-11T04:52:14.355Z,10.50
2019-04-11T04:54:44.391Z,9.37
2019-04-11T04:57:15.475Z,8.00
2019-04-11T04:59:46.818Z,6.80
2019-04-11T05:02:17.796Z,8.97
2019-04-11T05:04:47.886Z,7.27
2019-04-11T05:07:19.239Z,6.30
2019-04-11T05:09:50.356Z,10.93
2019-04-11T05:12:20.602Z,8.73
2019-04-11T05:14:51.832Z,9.47
2019-04-11T05:17:22.918Z,7.70
2019-04-11T05:19:52.534Z,10.00
2019-04-11T05:22:22.480Z,10.20
2019-04-11T05:24:51.965Z,9.63
2019-04-11T05:27:21.286Z,9.60
2019-04-11T05:29:51.581Z,9.73
2019-04-11T05:32:21.912Z,10.87
2019-04-11T05:34:51.414Z,10.40
2019-04-11T05:37:21.047Z,9.50
2019-04-11T05:39:50.519Z,9.57
2019-04-11T05:42:22.645Z,10.27
2019-04-11T05:44:51.515Z,9.13
2019-04-11T05:47:21.459Z,11.07
2019-04-11T05:50:07.696Z,9.80
2019-04-11T05:52:35.212Z,10.70
2019-04-11T05:55:09.597Z,10.97
2019-04-11T05:57:41.533Z,10.20
2019-04-11T06:00:19.304Z,9.67
2019-04-11T06:02:55.991Z,9.80
2019-04-11T06:05:33.017Z,10.60
2019-04-11T06:08:05.565Z,10.20
2019-04-11T06:10:43.657Z,10.80
2019-04-11T06:13:44.687Z,10.10
2019-04-11T06:16:14.645Z,9.90
2019-04-11T06:19:01.865Z,11.10
2019-04-11T06:21:35.944Z,10.60
2019-04-11T06:24:23.767Z,10.13
2019-04-11T06:27:02.339Z,10.60
2019-04-11T06:29:50.941Z,10.53
2019-04-11T06:32:34.151Z,11.20
2019-04-11T06:35:15.661Z,10.73
2019-04-11T06:38:02.780Z,10.93
2019-04-11T06:40:48.099Z,10.97
2019-04-11T06:43:28.574Z,12.07
2019-04-11T06:46:13.237Z,10.57
2019-04-11T06:48:50.685Z,10.43
2019-04-11T06:51:30.198Z,10.43
2019-04-11T06:54:37.145Z,10.60
2019-04-11T06:57:11.797Z,11.37
2019-04-11T06:59:43.303Z,11.63
2019-04-11T07:02:17.968Z,11.00
2019-04-11T07:04:50.082Z,9.73
2019-04-11T07:07:20.578Z,10.67
2019-04-11T07:09:53.343Z,10.37
2019-04-11T07:12:26.952Z,10.80
2019-04-11T07:15:04.524Z,10.73
2019-04-11T07:17:52.526Z,10.90
2019-04-11T07:20:39.144Z,10.60
2019-04-11T07:23:26.531Z,10.63
2019-04-11T07:26:14.923Z,10.97
2019-04-11T07:29:04.355Z,10.17
2019-04-11T07:31:53.037Z,10.67
2019-04-11T07:34:47.834Z,10.50
2019-04-11T07:37:28.096Z,10.90
2019-04-11T07:40:26.788Z,11.17
2019-04-11T07:43:17.595Z,10.67
2019-04-11T07:46:22.155Z,11.23
2019-04-11T07:48:58.022Z,11.10
2019-04-11T07:51:32.093Z,10.47
2019-04-11T07:54:06.083Z,11.00
2019-04-11T07:57:00.171Z,11.23
2019-04-11T07:59:57.884Z,10.83
2019-04-11T08:02:45.584Z,10.93
2019-04-11T08:05:54.366Z,11.10
2019-04-11T08:08:41.142Z,11.57
2019-04-11T08:11:14.176Z,12.50
2019-04-11T08:14:02.108Z,11.93
2019-04-11T08:16:49.635Z,12.37
2019-04-11T08:19:36.385Z,11.63
2019-04-11T08:22:17.611Z,11.57
2019-04-11T08:24:56.625Z,12.13
2019-04-11T08:27:32.294Z,11.90
2019-04-11T08:30:02.645Z,12.90
2019-04-11T08:33:00.299Z,11.80
2019-04-11T08:35:53.667Z,11.97
2019-04-11T08:38:28.684Z,12.87
2019-04-11T08:41:17.648Z,12.87
2019-04-11T08:43:47.679Z,12.13
2019-04-11T08:46:23.871Z,12.77
2019-04-11T08:48:55.784Z,13.70
2019-04-11T08:51:25.446Z,12.60
2019-04-11T08:54:13.763Z,12.93
2019-04-11T08:56:43.264Z,13.47
2019-04-11T08:59:45.995Z,13.33
2019-04-11T09:02:23.454Z,12.00
2019-04-11T09:05:19.877Z,13.50
2019-04-11T09:08:07.982Z,12.67
2019-04-11T09:11:01.238Z,12.43
2019-04-11T09:14:01.893Z,13.13
2019-04-11T09:16:47.923Z,13.73
2019-04-11T09:19:36.330Z,11.90
2019-04-11T09:22:23.288Z,12.57
2019-04-11T09:25:10.908Z,13.00
2019-04-11T09:28:05.364Z,13.07
2019-04-11T09:30:52.835Z,11.53
2019-04-11T09:33:44.925Z,12.10
2019-04-11T09:36:32.314Z,13.87
2019-04-11T09:39:02.617Z,13.47
2019-04-11T09:42:03.019Z,13.27
2019-04-11T09:44:49.144Z,13.93
2019-04-11T09:47:43.693Z,11.77
2019-04-11T09:50:20.393Z,13.60
2019-04-11T09:52:50.062Z,14.03
2019-04-11T09:55:41.669Z,13.83
2019-04-11T09:58:23.263Z,14.30
2019-04-11T10:01:15.966Z,13.47
2019-04-11T10:03:45.860Z,12.50
2019-04-11T10:06:38.800Z,14.60
2019-04-11T10:09:11.846Z,14.27
2019-04-11T10:11:59.537Z,14.37
2019-04-11T10:14:31.539Z,15.40
2019-04-11T10:17:20.749Z,14.97
2019-04-11T10:20:00.353Z,15.10
2019-04-11T10:22:49.046Z,15.70
2019-04-11T10:25:39.202Z,15.20
2019-04-11T10:28:30.415Z,15.10
2019-04-11T10:31:18.115Z,15.57
2019-04-11T10:33:57.393Z,16.30
2019-04-11T10:36:32.040Z,15.17
2019-04-11T10:39:39.522Z,16.47
2019-04-11T10:42:11.178Z,15.97
2019-04-11T10:44:51.899Z,14.60
2019-04-11T10:47:23.018Z,15.33
2019-04-11T10:50:15.338Z,17.17
2019-04-11T10:52:50.951Z,16.43
2019-04-11T10:55:23.781Z,15.47
2019-04-11T10:58:02.786Z,16.93
2019-04-11T11:00:37.550Z,16.00
2019-04-11T11:03:13.825Z,17.43
2019-04-11T11:05:45.834Z,17.87
2019-04-11T11:08:50.029Z,18.10
2019-04-11T11:11:24.338Z,16.50
2019-04-11T11:14:06.915Z,16.97
2019-04-11T11:16:44.965Z,16.00
2019-04-11T11:19:49.796Z,17.10
2019-04-11T11:22:33.149Z,16.60
2019-04-11T11:25:18.164Z,15.80
2019-04-11T11:27:48.060Z,17.53
2019-04-11T11:30:49.580Z,16.27
2019-04-11T11:33:22.207Z,17.00
2019-04-11T11:36:32.097Z,17.40
2019-04-11T11:39:12.951Z,16.03
2019-04-11T11:42:02.115Z,16.23
2019-04-11T11:44:41.376Z,16.43
2019-04-11T11:47:38.655Z,16.67
2019-04-11T11:50:15.700Z,16.43
2019-04-11T11:52:57.373Z,16.13
2019-04-11T11:55:30.064Z,16.13
2019-04-11T11:58:33.716Z,16.13
2019-04-11T12:01:05.883Z,16.07
2019-04-11T12:04:01.285Z,16.57
2019-04-11T12:06:31.277Z,15.83
2019-04-11T12:09:18.696Z,16.07
2019-04-11T12:11:52.988Z,15.73
2019-04-11T12:14:43.431Z,16.30
2019-04-11T12:17:20.818Z,15.10
2019-04-11T12:20:09.699Z,15.50
2019-04-11T12:22:36.778Z,15.70
2019-04-11T12:25:29.187Z,16.23
2019-04-11T12:28:15.266Z,15.67
2019-04-11T12:30:48.178Z,16.43
2019-04-11T12:33:45.687Z,15.50
2019-04-11T12:36:30.780Z,15.60
2019-04-11T12:39:25.384Z,16.50
2019-04-11T12:42:00.196Z,15.33
2019-04-11T12:44:46.525Z,15.13
2019-04-11T12:47:21.761Z,15.97
2019-04-11T12:50:15.716Z,14.93
2019-04-11T12:53:00.200Z,14.33
2019-04-11T12:55:34.478Z,15.67
2019-04-11T12:58:18.143Z,15.93
2019-04-11T13:01:12.325Z,14.60
2019-04-11T13:03:59.513Z,15.83
2019-04-11T13:07:02.979Z,15.93
2019-04-11T13:10:00.308Z,14.93
2019-04-11T13:12:45.987Z,15.60
2019-04-11T13:15:46.487Z,15.57
2019-04-11T13:18:34.718Z,14.90
2019-04-11T13:21:13.436Z,16.60
2019-04-11T13:24:04.429Z,14.83
2019-04-11T13:26:55.456Z,14.93
2019-04-11T13:29:52.866Z,15.30
2019-04-11T13:32:56.543Z,14.63
2019-04-11T13:35:58.373Z,14.43
2019-04-11T13:38:33.255Z,14.87
2019-04-11T13:41:20.554Z,14.33
2019-04-11T13:43:55.693Z,14.53
2019-04-11T13:46:46.959Z,14.93
2019-04-11T13:49:34.584Z,13.93
2019-04-11T13:52:24.055Z,13.70
2019-04-11T13:55:21.510Z,16.00
2019-04-11T13:58:12.934Z,15.67
2019-04-11T14:00:53.253Z,14.80
2019-04-11T14:03:44.407Z,14.43
2019-04-11T14:06:19.043Z,14.90
2019-04-11T14:09:22.572Z,14.20
2019-04-11T14:11:56.446Z,13.67
2019-04-11T14:14:51.934Z,15.57
2019-04-11T14:17:41.925Z,13.37
2019-04-11T14:20:33.176Z,13.90
2019-04-11T14:23:24.307Z,14.80
2019-04-11T14:26:11.617Z,13.50
2019-04-11T14:28:43.767Z,14.27
2019-04-11T14:31:40.836Z,14.03
2019-04-11T14:34:31.889Z,13.87
2019-04-11T14:37:22.953Z,14.30
2019-04-11T14:39:55.185Z,14.60
2019-04-11T14:42:58.700Z,14.87
2019-04-11T14:45:47.197Z,13.97
2019-04-11T14:48:24.699Z,13.60
2019-04-11T14:51:15.852Z,13.53
2019-04-11T14:53:56.525Z,14.87
2019-04-11T14:56:27.134Z,14.20
2019-04-11T14:59:14.400Z,14.57
2019-04-11T15:01:45.575Z,15.33
2019-04-11T15:04:43.676Z,13.77
2019-04-11T15:07:12.859Z,13.97
2019-04-11T15:09:51.757Z,15.00
2019-04-11T15:12:23.462Z,14.30
2019-04-11T15:15:23.661Z,13.80
2019-04-11T15:17:58.288Z,15.43
2019-04-11T15:20:54.805Z,14.40
2019-04-11T15:23:37.540Z,13.67
2019-04-11T15:26:24.311Z,13.17
2019-04-11T15:28:56.399Z,13.73
2019-04-11T15:31:43.851Z,14.10
2019-04-11T15:34:30.975Z,14.57
2019-04-11T15:37:25.885Z,13.53
2019-04-11T15:40:26.884Z,13.90
2019-04-11T15:43:20.899Z,14.30
2019-04-11T15:46:01.534Z,13.83
2019-04-11T15:48:55.751Z,14.13
2019-04-11T15:51:56.178Z,14.67
2019-04-11T15:54:44.463Z,14.80
2019-04-11T15:57:32.829Z,14.00
2019-04-11T16:00:29.906Z,13.93
2019-04-11T16:03:24.676Z,14.70
2019-04-11T16:06:11.508Z,14.03
2019-04-11T16:08:45.678Z,14.57
2019-04-11T16:11:39.814Z,14.07
2019-04-11T16:14:31.147Z,14.23
2019-04-11T16:17:17.708Z,13.90
2019-04-11T16:19:51.894Z,14.53
2019-04-11T16:22:49.305Z,14.23
2019-04-11T16:25:22.648Z,14.77
2019-04-11T16:28:10.826Z,14.57
2019-04-11T16:30:59.452Z,14.40
2019-04-11T16:33:35.236Z,15.17
2019-04-11T16:36:11.217Z,15.70
2019-04-11T16:39:02.255Z,14.93
2019-04-11T16:41:53.919Z,14.03
2019-04-11T16:44:29.747Z,15.70
2019-04-11T16:47:16.440Z,14.60
2019-04-11T16:49:45.733Z,14.63
2019-04-11T16:52:15.029Z,14.57
2019-04-11T16:54:44.248Z,14.63
2019-04-11T16:57:14.248Z,13.63
2019-04-11T16:59:43.592Z,14.00
2019-04-11T17:02:12.983Z,15.50
2019-04-11T17:04:42.265Z,14.10
2019-04-11T17:07:30.525Z,15.23
2019-04-11T17:10:00.121Z,14.13
2019-04-11T17:12:29.405Z,15.23
2019-04-11T17:15:01.103Z,15.03
2019-04-11T17:17:31.026Z,14.67
2019-04-11T17:20:00.931Z,15.27
2019-04-11T17:22:30.266Z,14.57
2019-04-11T17:24:59.569Z,14.40
2019-04-11T17:27:29.124Z,15.43
2019-04-11T17:29:58.507Z,13.43
2019-04-11T17:32:27.905Z,14.03
2019-04-11T17:34:57.226Z,12.83
2019-04-11T17:37:26.584Z,14.07
2019-04-11T17:39:56.092Z,12.97
2019-04-11T17:42:25.527Z,13.73
2019-04-11T17:44:54.856Z,13.10
2019-04-11T17:47:26.801Z,13.50
2019-04-11T17:49:56.092Z,13.43
2019-04-11T17:52:25.433Z,12.33
2019-04-11T17:54:54.884Z,12.80
2019-04-11T17:57:26.601Z,13.40
2019-04-11T17:59:56.777Z,12.83
2019-04-11T18:02:26.266Z,12.30
2019-04-11T18:04:55.662Z,12.47
2019-04-11T18:07:25.030Z,13.63
2019-04-11T18:09:56.008Z,12.47
2019-04-11T18:12:26.222Z,12.97
2019-04-11T18:14:56.123Z,13.37
2019-04-11T18:17:25.446Z,11.90
2019-04-11T18:19:54.803Z,12.63
2019-04-11T18:22:24.121Z,12.73
2019-04-11T18:24:53.522Z,12.40
2019-04-11T18:27:22.828Z,12.07
2019-04-11T18:29:52.953Z,12.07
2019-04-11T18:32:22.862Z,11.80
2019-04-11T18:34:52.230Z,12.63
2019-04-11T18:37:21.559Z,11.73
2019-04-11T18:39:51.244Z,12.33
2019-04-11T18:42:20.835Z,12.33
2019-04-11T18:44:50.178Z,11.83
2019-04-11T18:47:19.625Z,11.53
2019-04-11T18:49:50.966Z,11.27
2019-04-11T18:52:24.900Z,12.03
2019-04-11T18:54:51.517Z,11.33
2019-04-11T18:57:20.813Z,10.97
2019-04-11T18:59:50.112Z,11.80
2019-04-11T19:02:19.584Z,10.70
2019-04-11T19:04:48.930Z,11.07
2019-04-11T19:07:27.360Z,10.70
2019-04-11T19:09:49.470Z,10.97
2019-04-11T19:12:19.054Z,10.50
2019-04-11T19:14:48.383Z,10.83
2019-04-11T19:17:17.736Z,11.03
2019-04-11T19:19:48.942Z,10.80
2019-04-11T19:22:19.720Z,10.50
2019-04-11T19:24:49.249Z,10.23
2019-04-11T19:27:20.514Z,10.00
2019-04-11T19:29:49.578Z,10.77
2019-04-11T19:32:18.941Z,10.27
2019-04-11T19:34:48.277Z,10.40
2019-04-11T19:37:17.763Z,10.87
2019-04-11T19:39:47.236Z,10.37
2019-04-11T19:42:19.633Z,10.13
2019-04-11T19:44:49.669Z,10.23
2019-04-11T19:47:21.366Z,10.67
2019-04-11T19:49:50.818Z,9.90
2019-04-11T19:52:20.162Z,10.27
2019-04-11T19:54:49.552Z,10.03
2019-04-11T19:57:18.940Z,10.07
2019-04-11T19:59:48.211Z,10.00
2019-04-11T20:02:17.578Z,10.60
2019-04-11T20:04:46.871Z,10.17
2019-04-11T20:07:16.441Z,10.20
2019-04-11T20:09:45.753Z,10.27
2019-04-11T20:12:15.093Z,10.47
2019-04-11T20:14:44.420Z,10.20
2019-04-11T20:17:13.765Z,9.97
2019-04-11T20:19:43.127Z,10.33
2019-04-11T20:22:12.757Z,9.33
2019-04-11T20:24:45.985Z,10.27
2019-04-11T20:27:13.177Z,9.70
2019-04-11T20:29:42.513Z,9.13
2019-04-11T20:32:11.849Z,9.87
2019-04-11T20:34:41.276Z,9.63
2019-04-11T20:37:13.004Z,8.40
2019-04-11T20:39:46.289Z,9.47
2019-04-11T20:42:12.595Z,9.23
2019-04-11T20:44:42.015Z,7.60
2019-04-11T20:47:11.458Z,9.57
2019-04-11T20:49:49.917Z,8.23
2019-04-11T20:52:19.313Z,10.23
2019-04-11T20:54:48.667Z,9.30
2019-04-11T20:57:25.710Z,9.53
2019-04-11T20:59:49.026Z,9.47
2019-04-11T21:02:18.341Z,9.43
2019-04-11T21:04:47.957Z,9.40
2019-04-11T21:07:17.241Z,9.33
2019-04-11T21:09:46.601Z,9.37
2019-04-11T21:12:17.504Z,9.63
2019-04-11T21:14:46.887Z,9.67
2019-04-11T21:17:16.275Z,8.50
2019-04-11T21:19:45.670Z,8.63
2019-04-11T21:22:15.005Z,9.33
2019-04-11T21:24:44.494Z,9.03
2019-04-11T21:27:14.073Z,8.70
2019-04-11T21:29:43.350Z,8.50
2019-04-11T21:32:14.034Z,8.87
2019-04-11T21:34:43.535Z,9.17
2019-04-11T21:37:12.919Z,9.30
2019-04-11T21:39:42.218Z,9.20
2019-04-11T21:42:11.674Z,8.93
2019-04-11T21:44:40.958Z,8.53
2019-04-11T21:47:10.228Z,8.43
2019-04-11T21:49:39.437Z,9.37
2019-04-11T21:52:12.023Z,9.17
2019-04-11T21:54:39.647Z,9.07
2019-04-11T21:57:08.963Z,8.90
2019-04-11T21:59:38.273Z,9.63
2019-04-11T22:02:08.677Z,10.03
2019-04-11T22:04:38.063Z,9.10
2019-04-11T22:07:07.277Z,9.63
2019-04-11T22:09:36.597Z,9.23
2019-04-11T22:12:08.144Z,9.33
2019-04-11T22:14:41.375Z,9.73
2019-04-11T22:17:14.842Z,9.50
2019-04-11T22:19:45.263Z,9.70
2019-04-11T22:22:12.816Z,9.97
2019-04-11T22:24:42.103Z,9.73
2019-04-11T22:27:11.419Z,10.50
2019-04-11T22:29:40.730Z,10.33
2019-04-11T22:32:11.851Z,9.43
2019-04-11T22:34:43.692Z,10.27
2019-04-11T22:37:12.957Z,10.10
2019-04-11T22:39:42.721Z,10.53
2019-04-11T22:42:12.215Z,9.43
2019-04-11T22:44:41.385Z,9.63
2019-04-11T22:47:11.954Z,9.20
2019-04-11T22:49:41.136Z,10.63
2019-04-11T22:52:11.325Z,10.23
2019-04-11T22:54:42.014Z,10.63
2019-04-11T22:57:12.210Z,9.40
2019-04-11T22:59:44.882Z,10.30
2019-04-11T23:02:47.439Z,9.13
2019-04-11T23:05:18.002Z,9.60
2019-04-11T23:07:48.425Z,10.37
2019-04-11T23:10:18.363Z,9.60
2019-04-11T23:12:47.640Z,8.33
2019-04-11T23:15:16.915Z,10.07
2019-04-11T23:17:46.189Z,9.93
2019-04-11T23:20:15.509Z,9.53
2019-04-11T23:22:44.697Z,9.67
2019-04-11T23:25:13.963Z,10.43
2019-04-11T23:27:43.256Z,10.33
2019-04-11T23:30:18.055Z,10.57
2019-04-11T23:32:46.049Z,10.80
2019-04-11T23:35:15.365Z,10.10
2019-04-11T23:37:53.579Z,9.97
2019-04-11T23:40:22.904Z,10.23
2019-04-11T23:42:52.194Z,9.13
2019-04-11T23:45:24.346Z,10.23
2019-04-11T23:47:54.433Z,10.07
2019-04-11T23:50:25.250Z,10.57
2019-04-11T23:52:56.978Z,9.83
2019-04-11T23:55:29.685Z,9.63
2019-04-11T23:57:57.103Z,10.20
